| time (UTC) | temp C | wind direction | speed KPH | gust KPH | rain 1hr cm | rain 24hr cm | rain mn cm | humidity % | barometer mb |
| 20260507200825 | 19 | 294 | 3.2 | 4.8 | 0.00 | 0.15 | 0.15 | 35 | 1007.9 |
| 20260507200321 | 19 | 169 | 0.0 | 1.6 | 0.00 | 0.15 | 0.15 | 36 | 1007.8 |
| 20260507195817 | 18 | 197 | 1.6 | 3.2 | 0.00 | 0.15 | 0.15 | 36 | 1007.7 |
| 20260507195315 | 18 | 177 | 0.0 | 1.6 | 0.00 | 0.15 | 0.15 | 39 | 1007.8 |
| 20260507194812 | 18 | 16 | 4.8 | 4.8 | 0.00 | 0.15 | 0.15 | 39 | 1007.9 |
| 20260507194308 | 20 | 165 | 1.6 | 1.6 | 0.00 | 0.15 | 0.15 | 37 | 1008.0 |
| 20260507193805 | 19 | 159 | 1.6 | 3.2 | 0.00 | 0.15 | 0.15 | 38 | 1008.1 |
| 20260507193302 | 18 | 194 | 1.6 | 1.6 | 0.00 | 0.15 | 0.15 | 38 | 1008.0 |
| 20260507192757 | 18 | 262 | 6.4 | 6.4 | 0.00 | 0.15 | 0.15 | 36 | 1008.0 |
| 20260507192255 | 18 | 211 | 1.6 | 1.6 | 0.00 | 0.15 | 0.15 | 42 | 1008.3 |
| 20260507191750 | 19 | 349 | 3.2 | 6.4 | 0.00 | 0.15 | 0.15 | 38 | 1008.4 |
| 20260507191248 | 19 | 181 | 1.6 | 1.6 | 0.00 | 0.15 | 0.15 | 38 | 1008.4 |
| 20260507190744 | 18 | 330 | 1.6 | 3.2 | 0.00 | 0.15 | 0.15 | 37 | 1008.5 |
| 20260507190243 | 18 | 269 | 1.6 | 3.2 | 0.00 | 0.15 | 0.15 | 38 | 1008.5 |
| 20260507185741 | 18 | 206 | 4.8 | 4.8 | 0.00 | 0.15 | 0.15 | 38 | 1008.7 |
| 20260507185237 | 18 | 223 | 1.6 | 3.2 | 0.00 | 0.15 | 0.15 | 38 | 1008.6 |
| 20260507184735 | 18 | 149 | 1.6 | 3.2 | 0.00 | 0.15 | 0.15 | 42 | 1008.6 |
| 20260507184233 | 18 | 27 | 3.2 | 3.2 | 0.00 | 0.15 | 0.15 | 40 | 1008.6 |
| 20260507183729 | 18 | 200 | 1.6 | 3.2 | 0.00 | 0.15 | 0.15 | 41 | 1008.6 |
| 20260507183226 | 18 | 88 | 4.8 | 4.8 | 0.00 | 0.15 | 0.15 | 39 | 1008.7 |
| 20260507182724 | 18 | 161 | 3.2 | 6.4 | 0.00 | 0.15 | 0.15 | 42 | 1008.8 |
| 20260507182218 | 18 | 46 | 1.6 | 3.2 | 0.00 | 0.15 | 0.15 | 41 | 1008.8 |
| 20260507181716 | 18 | 112 | 3.2 | 4.8 | 0.00 | 0.15 | 0.15 | 42 | 1008.9 |
| 20260507181212 | 18 | 217 | 4.8 | 4.8 | 0.00 | 0.15 | 0.15 | 45 | 1008.8 |
| 20260507180710 | 18 | 198 | 0.0 | 1.6 | 0.00 | 0.15 | 0.15 | 46 | 1009.0 |
| 20260507180206 | 17 | 146 | 1.6 | 3.2 | 0.00 | 0.15 | 0.15 | 42 | 1009.3 |
| 20260507175701 | 17 | 23 | 4.8 | 6.4 | 0.00 | 0.15 | 0.15 | 45 | 1009.1 |
| 20260507175158 | 16 | 150 | 8.0 | 9.7 | 0.00 | 0.15 | 0.15 | 45 | 1009.1 |
| 20260507174655 | 17 | 87 | 6.4 | 6.4 | 0.00 | 0.15 | 0.15 | 42 | 1009.4 |
| 20260507174153 | 17 | 88 | 6.4 | 11.3 | 0.00 | 0.15 | 0.15 | 47 | 1009.2 |
| 20260507173645 | 17 | 96 | 3.2 | 4.8 | 0.00 | 0.15 | 0.15 | 42 | 1009.3 |
| 20260507173142 | 17 | 171 | 1.6 | 1.6 | 0.00 | 0.15 | 0.15 | 43 | 1009.5 |
| 20260507172638 | 17 | 119 | 1.6 | 1.6 | 0.00 | 0.15 | 0.15 | 44 | 1009.6 |
| 20260507172135 | 16 | 183 | 1.6 | 3.2 | 0.00 | 0.15 | 0.15 | 46 | 1009.8 |
| 20260507171635 | 16 | 248 | 3.2 | 3.2 | 0.00 | 0.15 | 0.15 | 46 | 1009.9 |
| 20260507171132 | 16 | 114 | 1.6 | 3.2 | 0.00 | 0.15 | 0.15 | 47 | 1009.7 |
| 20260507170629 | 16 | 212 | 0.0 | 1.6 | 0.00 | 0.15 | 0.15 | 47 | 1010.0 |
| 20260507170126 | 16 | 112 | 1.6 | 1.6 | 0.00 | 0.15 | 0.15 | 47 | 1010.0 |
| 20260507165622 | 16 | 53 | 3.2 | 4.8 | 0.00 | 0.15 | 0.15 | 49 | 1010.2 |
| 20260507165119 | 16 | 64 | 1.6 | 3.2 | 0.00 | 0.15 | 0.15 | 48 | 1010.1 |
| 20260507164614 | 16 | 138 | 6.4 | 9.7 | 0.00 | 0.15 | 0.15 | 51 | 1010.5 |
| 20260507164111 | 16 | 183 | 0.0 | 1.6 | 0.00 | 0.15 | 0.15 | 52 | 1010.2 |
| 20260507163610 | 15 | 47 | 6.4 | 6.4 | 0.00 | 0.15 | 0.15 | 52 | 1010.4 |
| 20260507163108 | 15 | 45 | 9.7 | 16.1 | 0.00 | 0.15 | 0.15 | 50 | 1010.5 |
| 20260507162607 | 15 | 101 | 3.2 | 4.8 | 0.00 | 0.15 | 0.15 | 53 | 1010.5 |
| 20260507162059 | 15 | 48 | 6.4 | 6.4 | 0.00 | 0.15 | 0.15 | 54 | 1010.7 |
| 20260507161555 | 15 | 78 | 8.0 | 11.3 | 0.00 | 0.15 | 0.15 | 55 | 1010.7 |
| 20260507161052 | 15 | 328 | 1.6 | 1.6 | 0.00 | 0.15 | 0.15 | 57 | 1010.7 |
| 20260507160549 | 16 | 181 | 1.6 | 3.2 | 0.00 | 0.15 | 0.15 | 56 | 1010.7 |
| 20260507160045 | 15 | 193 | 1.6 | 1.6 | 0.00 | 0.15 | 0.15 | 57 | 1010.8 |
| 20260507155540 | 15 | 184 | 0.0 | 1.6 | 0.00 | 0.15 | 0.15 | 58 | 1010.7 |
| 20260507155038 | 15 | 32 | 4.8 | 4.8 | 0.00 | 0.15 | 0.15 | 57 | 1010.9 |
| 20260507154534 | 16 | 270 | 4.8 | 4.8 | 0.00 | 0.15 | 0.15 | 53 | 1010.8 |
| 20260507154032 | 15 | 2 | 4.8 | 9.7 | 0.00 | 0.15 | 0.15 | 58 | 1011.1 |
| 20260507153528 | 15 | 273 | 3.2 | 3.2 | 0.00 | 0.15 | 0.15 | 58 | 1011.2 |
| 20260507153024 | 15 | 70 | 6.4 | 9.7 | 0.00 | 0.15 | 0.15 | 57 | 1011.2 |
| 20260507152520 | 15 | 6 | 1.6 | 4.8 | 0.00 | 0.15 | 0.15 | 57 | 1011.1 |
| 20260507152017 | 15 | 77 | 4.8 | 4.8 | 0.00 | 0.15 | 0.15 | 57 | 1011.3 |
| 20260507151513 | 15 | 27 | 3.2 | 4.8 | 0.00 | 0.15 | 0.15 | 58 | 1011.8 |
| 20260507151010 | 15 | 96 | 4.8 | 6.4 | 0.00 | 0.15 | 0.15 | 59 | 1011.6 |
| 20260507150507 | 14 | 194 | 1.6 | 3.2 | 0.00 | 0.15 | 0.15 | 61 | 1011.7 |
| 20260507150005 | 15 | 286 | 6.4 | 6.4 | 0.00 | 0.15 | 0.15 | 61 | 1011.3 |
| 20260507145459 | 14 | 97 | 3.2 | 6.4 | 0.00 | 0.15 | 0.15 | 63 | 1011.8 |
| 20260507144956 | 15 | 237 | 3.2 | 3.2 | 0.00 | 0.15 | 0.15 | 61 | 1011.6 |
| 20260507144453 | 14 | 160 | 0.0 | 1.6 | 0.00 | 0.15 | 0.15 | 63 | 1011.7 |
| 20260507143950 | 13 | 147 | 1.6 | 3.2 | 0.00 | 0.15 | 0.15 | 65 | 1011.9 |
| 20260507143448 | 13 | 151 | 3.2 | 4.8 | 0.00 | 0.15 | 0.15 | 65 | 1011.8 |
| 20260507142944 | 13 | 101 | 3.2 | 4.8 | 0.00 | 0.15 | 0.15 | 63 | 1011.9 |
| 20260507142440 | 13 | 117 | 3.2 | 6.4 | 0.00 | 0.15 | 0.15 | 63 | 1011.9 |
| 20260507141937 | 13 | 268 | 3.2 | 4.8 | 0.00 | 0.15 | 0.15 | 64 | 1011.9 |
| 20260507141433 | 13 | 319 | 3.2 | 4.8 | 0.00 | 0.15 | 0.15 | 65 | 1011.8 |
| 20260507140930 | 13 | 284 | 3.2 | 4.8 | 0.00 | 0.15 | 0.15 | 67 | 1012.0 |
| 20260507140427 | 12 | 147 | 0.0 | 0.0 | 0.00 | 0.15 | 0.15 | 68 | 1011.9 |
| 20260507135925 | 12 | 333 | 3.2 | 3.2 | 0.00 | 0.15 | 0.15 | 69 | 1012.1 |
| 20260507135421 | 12 | 243 | 1.6 | 1.6 | 0.00 | 0.15 | 0.15 | 69 | 1012.3 |
| 20260507134918 | 12 | 345 | 1.6 | 1.6 | 0.00 | 0.15 | 0.15 | 69 | 1012.3 |
| 20260507134415 | 13 | 214 | 1.6 | 1.6 | 0.00 | 0.15 | 0.15 | 70 | 1012.0 |
| 20260507133910 | 12 | 243 | 3.2 | 4.8 | 0.00 | 0.15 | 0.15 | 68 | 1012.0 |
| 20260507133406 | 12 | 49 | 1.6 | 3.2 | 0.00 | 0.15 | 0.15 | 70 | 1011.9 |
| 20260507132900 | 12 | 262 | 3.2 | 3.2 | 0.00 | 0.15 | 0.15 | 71 | 1012.1 |
| 20260507132355 | 12 | 218 | 3.2 | 3.2 | 0.00 | 0.15 | 0.15 | 72 | 1012.1 |
| 20260507131852 | 12 | 190 | 0.0 | 1.6 | 0.00 | 0.15 | 0.15 | 72 | 1012.2 |
| 20260507131349 | 12 | 17 | 1.6 | 1.6 | 0.00 | 0.15 | 0.15 | 73 | 1012.1 |
| 20260507130846 | 12 | 35 | 6.4 | 11.3 | 0.00 | 0.15 | 0.15 | 74 | 1012.0 |
| 20260507130343 | 12 | 13 | 1.6 | 3.2 | 0.00 | 0.15 | 0.15 | 75 | 1012.0 |
| 20260507125842 | 12 | 358 | 6.4 | 9.7 | 0.00 | 0.15 | 0.15 | 76 | 1012.1 |
| 20260507125339 | 11 | 358 | 3.2 | 6.4 | 0.00 | 0.15 | 0.15 | 78 | 1011.9 |
| 20260507124836 | 11 | 89 | 4.8 | 9.7 | 0.00 | 0.15 | 0.15 | 79 | 1012.2 |
| 20260507124332 | 11 | 336 | 3.2 | 3.2 | 0.00 | 0.15 | 0.15 | 81 | 1012.1 |
| 20260507123831 | 11 | 83 | 3.2 | 4.8 | 0.00 | 0.15 | 0.15 | 83 | 1011.9 |
| 20260507123328 | 11 | 308 | 0.0 | 1.6 | 0.00 | 0.15 | 0.15 | 84 | 1012.0 |
| 20260507122824 | 11 | 168 | 0.0 | 1.6 | 0.00 | 0.15 | 0.15 | 85 | 1012.0 |
| 20260507122319 | 11 | 81 | 0.0 | 1.6 | 0.00 | 0.15 | 0.15 | 85 | 1011.9 |
| 20260507121816 | 11 | 26 | 1.6 | 3.2 | 0.00 | 0.15 | 0.15 | 85 | 1012.0 |
| 20260507121312 | 11 | 223 | 0.0 | 1.6 | 0.00 | 0.15 | 0.15 | 86 | 1011.9 |
| 20260507120808 | 11 | 170 | 0.0 | 0.0 | 0.00 | 0.15 | 0.15 | 87 | 1011.7 |
| 20260507120305 | 11 | 254 | 1.6 | 1.6 | 0.00 | 0.15 | 0.15 | 87 | 1011.9 |
| 20260507115801 | 11 | 205 | 0.0 | 1.6 | 0.00 | 0.15 | 0.15 | 89 | 1011.9 |
| 20260507115257 | 11 | 163 | 0.0 | 0.0 | 0.00 | 0.15 | 0.15 | 89 | 1011.9 |
| 20260507114753 | 11 | 196 | 0.0 | 0.0 | 0.00 | 0.15 | 0.15 | 90 | 1012.0 |
| 20260507114250 | 11 | 202 | 0.0 | 1.6 | 0.00 | 0.15 | 0.15 | 90 | 1012.0 |
| 20260507113748 | 11 | 188 | 0.0 | 1.6 | 0.00 | 0.15 | 0.15 | 91 | 1011.9 |
| 20260507113244 | 10 | 12 | 1.6 | 3.2 | 0.00 | 0.15 | 0.15 | 91 | 1011.9 |
| 20260507112742 | 10 | 223 | 0.0 | 0.0 | 0.00 | 0.15 | 0.15 | 92 | 1011.7 |
| 20260507112239 | 10 | 218 | 0.0 | 0.0 | 0.00 | 0.15 | 0.15 | 92 | 1011.9 |
| 20260507111737 | 10 | 207 | 0.0 | 0.0 | 0.00 | 0.15 | 0.15 | 92 | 1011.5 |
| 20260507111233 | 10 | 128 | 0.0 | 0.0 | 0.00 | 0.15 | 0.15 | 92 | 1011.4 |
| 20260507110729 | 10 | 231 | 1.6 | 1.6 | 0.00 | 0.15 | 0.15 | 92 | 1011.5 |
| 20260507110226 | 10 | 209 | 0.0 | 0.0 | 0.00 | 0.15 | 0.15 | 92 | 1011.3 |
| 20260507105722 | 10 | 158 | 0.0 | 0.0 | 0.00 | 0.15 | 0.15 | 92 | 1011.2 |
| 20260507105219 | 10 | 184 | 0.0 | 0.0 | 0.00 | 0.15 | 0.15 | 93 | 1011.1 |
| 20260507104716 | 10 | 213 | 0.0 | 0.0 | 0.00 | 0.15 | 0.15 | 93 | 1011.1 |
| 20260507104213 | 10 | 203 | 0.0 | 0.0 | 0.00 | 0.15 | 0.15 | 93 | 1011.0 |
| 20260507103708 | 10 | 121 | 0.0 | 0.0 | 0.00 | 0.15 | 0.15 | 93 | 1010.8 |
| 20260507103205 | 10 | 177 | 0.0 | 0.0 | 0.00 | 0.15 | 0.15 | 93 | 1010.9 |
| 20260507102701 | 10 | 178 | 0.0 | 0.0 | 0.00 | 0.15 | 0.15 | 93 | 1010.8 |
| 20260507102158 | 10 | 177 | 0.0 | 0.0 | 0.00 | 0.15 | 0.15 | 93 | 1010.7 |
| 20260507101654 | 10 | 178 | 0.0 | 0.0 | 0.00 | 0.15 | 0.15 | 93 | 1010.7 |
| 20260507101149 | 10 | 179 | 0.0 | 0.0 | 0.00 | 0.15 | 0.15 | 93 | 1010.8 |
| 20260507100647 | 10 | 174 | 1.6 | 1.6 | 0.00 | 0.15 | 0.15 | 93 | 1010.8 |
| 20260507100145 | 10 | 60 | 3.2 | 3.2 | 0.00 | 0.15 | 0.15 | 93 | 1010.7 |
| 20260507095643 | 10 | 133 | 0.0 | 0.0 | 0.00 | 0.15 | 0.15 | 93 | 1010.9 |
| 20260507095139 | 10 | 190 | 0.0 | 0.0 | 0.00 | 0.15 | 0.15 | 93 | 1010.8 |
| 20260507094636 | 10 | 240 | 0.0 | 1.6 | 0.00 | 0.15 | 0.15 | 93 | 1010.7 |
| 20260507094133 | 10 | 130 | 0.0 | 0.0 | 0.00 | 0.15 | 0.15 | 93 | 1010.7 |
| 20260507093630 | 10 | 122 | 0.0 | 0.0 | 0.00 | 0.15 | 0.15 | 93 | 1010.6 |
| 20260507093129 | 10 | 124 | 0.0 | 1.6 | 0.00 | 0.15 | 0.15 | 93 | 1010.6 |
| 20260507092625 | 10 | 148 | 0.0 | 0.0 | 0.00 | 0.15 | 0.15 | 93 | 1010.6 |
| 20260507092121 | 10 | 192 | 0.0 | 1.6 | 0.00 | 0.15 | 0.15 | 93 | 1010.6 |
| 20260507091618 | 10 | 202 | 0.0 | 0.0 | 0.00 | 0.15 | 0.15 | 93 | 1010.6 |
| 20260507091114 | 10 | 198 | 1.6 | 1.6 | 0.00 | 0.15 | 0.15 | 93 | 1010.4 |
| 20260507090610 | 10 | 208 | 0.0 | 0.0 | 0.00 | 0.15 | 0.15 | 93 | 1010.5 |
| 20260507090107 | 10 | 129 | 0.0 | 0.0 | 0.00 | 0.15 | 0.15 | 93 | 1010.6 |
| 20260507085604 | 10 | 133 | 0.0 | 1.6 | 0.00 | 0.15 | 0.15 | 93 | 1010.4 |
| 20260507085101 | 10 | 204 | 0.0 | 1.6 | 0.00 | 0.15 | 0.15 | 93 | 1010.2 |
| 20260507084558 | 10 | 184 | 0.0 | 0.0 | 0.00 | 0.15 | 0.15 | 93 | 1010.2 |
| 20260507084055 | 10 | 182 | 0.0 | 0.0 | 0.00 | 0.15 | 0.15 | 93 | 1010.0 |
| 20260507083551 | 10 | 226 | 0.0 | 0.0 | 0.00 | 0.15 | 0.15 | 93 | 1010.2 |
| 20260507083048 | 10 | 158 | 0.0 | 0.0 | 0.00 | 0.15 | 0.15 | 93 | 1010.0 |
| 20260507082544 | 10 | 223 | 0.0 | 0.0 | 0.00 | 0.15 | 0.15 | 93 | 1010.0 |
| 20260507082035 | 10 | 135 | 0.0 | 0.0 | 0.00 | 0.15 | 0.15 | 93 | 1010.1 |
| 20260507081531 | 10 | 289 | 1.6 | 1.6 | 0.00 | 0.15 | 0.15 | 94 | 1010.3 |
| 20260507081029 | 10 | 1 | 3.2 | 3.2 | 0.00 | 0.15 | 0.15 | 94 | 1010.2 |
| 20260507080524 | 10 | 217 | 1.6 | 3.2 | 0.00 | 0.15 | 0.15 | 94 | 1010.2 |
| 20260507080021 | 10 | 200 | 1.6 | 1.6 | 0.00 | 0.15 | 0.15 | 94 | 1009.9 |
| 20260507075516 | 10 | 54 | 3.2 | 4.8 | 0.00 | 0.15 | 0.15 | 95 | 1009.7 |
| 20260507075013 | 10 | 42 | 1.6 | 3.2 | 0.00 | 0.15 | 0.15 | 95 | 1010.1 |
| 20260507074509 | 10 | 316 | 3.2 | 3.2 | 0.00 | 0.15 | 0.15 | 95 | 1010.3 |
| 20260507074008 | 10 | 259 | 0.0 | 1.6 | 0.00 | 0.15 | 0.15 | 95 | 1010.1 |
| 20260507073504 | 11 | 224 | 1.6 | 1.6 | 0.00 | 0.15 | 0.15 | 96 | 1010.1 |
| 20260507073000 | 11 | 32 | 0.0 | 0.0 | 0.00 | 0.15 | 0.15 | 96 | 1010.3 |
| 20260507072458 | 11 | 289 | 1.6 | 1.6 | 0.00 | 0.15 | 0.15 | 96 | 1010.8 |
| 20260507071955 | 11 | 61 | 1.6 | 1.6 | 0.00 | 0.15 | 0.15 | 96 | 1010.6 |
| 20260507071452 | 11 | 225 | 0.0 | 1.6 | 0.00 | 0.15 | 0.15 | 95 | 1010.3 |
| 20260507070948 | 11 | 96 | 1.6 | 1.6 | 0.00 | 0.15 | 0.15 | 95 | 1010.3 |
| 20260507070446 | 10 | 251 | 1.6 | 1.6 | 0.00 | 0.15 | 0.15 | 95 | 1010.1 |
| 20260507065943 | 10 | 138 | 0.0 | 0.0 | 0.00 | 0.15 | 0.15 | 95 | 1010.1 |
| 20260507065439 | 10 | 174 | 0.0 | 0.0 | 0.00 | 0.15 | 0.15 | 94 | 1010.2 |
| 20260507064936 | 10 | 121 | 0.0 | 0.0 | 0.00 | 0.15 | 0.15 | 94 | 1010.0 |
| 20260507064435 | 10 | 230 | 0.0 | 0.0 | 0.00 | 0.15 | 0.15 | 94 | 1010.1 |
| 20260507063932 | 10 | 72 | 1.6 | 1.6 | 0.13 | 0.15 | 0.15 | 94 | 1010.0 |
| 20260507063429 | 11 | 150 | 1.6 | 3.2 | 0.13 | 0.15 | 0.15 | 94 | 1009.8 |
| 20260507062926 | 11 | 46 | 6.4 | 9.7 | 0.18 | 0.13 | 0.13 | 93 | 1010.1 |
| 20260507062423 | 11 | 157 | 3.2 | 6.4 | 0.18 | 0.13 | 0.13 | 93 | 1010.6 |
| 20260507061921 | 11 | 335 | 4.8 | 6.4 | 0.13 | 0.10 | 0.10 | 93 | 1010.1 |
| 20260507061418 | 11 | 333 | 4.8 | 6.4 | 0.61 | 0.10 | 0.10 | 92 | 1010.2 |
| 20260507060917 | 12 | 285 | 3.2 | 3.2 | 0.48 | 0.08 | 0.08 | 90 | 1010.2 |
| 20260507060413 | 12 | 287 | 1.6 | 1.6 | 0.00 | 0.00 | 0.00 | 87 | 1010.1 |
| 20260507055910 | 13 | 28 | 3.2 | 3.2 | 0.00 | 0.00 | 0.00 | 85 | 1009.6 |
| 20260507055405 | 13 | 277 | 6.4 | 6.4 | 0.00 | 0.00 | 0.00 | 85 | 1009.7 |
| 20260507054902 | 13 | 93 | 3.2 | 6.4 | 0.00 | 0.00 | 0.00 | 87 | 1009.6 |
| 20260507054358 | 13 | 143 | 1.6 | 3.2 | 0.00 | 0.00 | 0.00 | 87 | 1009.5 |
| 20260507053855 | 13 | 49 | 3.2 | 4.8 | 0.00 | 0.00 | 0.00 | 87 | 1009.7 |
| 20260507053353 | 13 | 1 | 3.2 | 3.2 | 0.00 | 0.00 | 0.00 | 88 | 1010.0 |
| 20260507052852 | 13 | 97 | 3.2 | 4.8 | 0.00 | 0.00 | 0.00 | 88 | 1009.7 |
| 20260507052348 | 13 | 249 | 3.2 | 3.2 | 0.00 | 0.00 | 0.00 | 88 | 1009.5 |
| 20260507051845 | 14 | 69 | 1.6 | 1.6 | 0.00 | 0.00 | 0.00 | 88 | 1009.6 |
| 20260507051343 | 14 | 82 | 1.6 | 1.6 | 0.00 | 0.00 | 0.00 | 88 | 1009.5 |
| 20260507050834 | 14 | 51 | 4.8 | 6.4 | 0.00 | 0.00 | 0.00 | 89 | 1008.8 |
| 20260507050330 | 14 | 136 | 1.6 | 1.6 | 0.00 | 0.00 | 0.00 | 89 | 1008.7 |
| 20260507045827 | 14 | 167 | 0.0 | 0.0 | 0.00 | 0.00 | 0.00 | 90 | 1008.9 |
| 20260507045324 | 15 | 166 | 0.0 | 0.0 | 0.00 | 0.00 | 0.00 | 91 | 1008.8 |
| 20260507044821 | 15 | 70 | 1.6 | 1.6 | 0.00 | 0.00 | 0.00 | 92 | 1009.0 |
| 20260507044318 | 15 | 102 | 3.2 | 4.8 | 0.00 | 0.00 | 0.00 | 93 | 1009.0 |
| 20260507043814 | 15 | 27 | 4.8 | 6.4 | 0.00 | 0.00 | 0.00 | 93 | 1008.9 |
| 20260507043310 | 15 | 208 | 1.6 | 1.6 | 0.00 | 0.00 | 0.00 | 93 | 1008.6 |
| 20260507042807 | 16 | 276 | 3.2 | 4.8 | 0.00 | 0.00 | 0.00 | 92 | 1008.8 |
| 20260507042306 | 16 | 270 | 4.8 | 6.4 | 0.00 | 0.00 | 0.00 | 93 | 1008.8 |
| 20260507041800 | 17 | 223 | 6.4 | 11.3 | 0.00 | 0.00 | 0.00 | 93 | 1008.9 |
| 20260507041256 | 17 | 218 | 0.0 | 0.0 | 0.00 | 0.00 | 0.00 | 93 | 1008.7 |
| 20260507040753 | 17 | 222 | 1.6 | 1.6 | 0.00 | 0.00 | 0.00 | 92 | 1008.5 |
| 20260507040249 | 17 | 191 | 1.6 | 1.6 | 0.00 | 0.00 | 0.00 | 92 | 1008.5 |
| 20260507035745 | 17 | 238 | 1.6 | 1.6 | 0.00 | 0.00 | 0.00 | 92 | 1008.4 |
| 20260507035240 | 17 | 349 | 1.6 | 3.2 | 0.00 | 0.00 | 0.00 | 91 | 1008.7 |
| 20260507034739 | 18 | 313 | 1.6 | 1.6 | 0.00 | 0.00 | 0.00 | 90 | 1009.0 |
| 20260507034235 | 18 | 107 | 0.0 | 1.6 | 0.00 | 0.00 | 0.00 | 90 | 1008.9 |
| 20260507033734 | 18 | 357 | 1.6 | 3.2 | 0.00 | 0.00 | 0.00 | 88 | 1008.7 |
| 20260507033231 | 18 | 223 | 1.6 | 1.6 | 0.00 | 0.00 | 0.00 | 87 | 1008.4 |
| 20260507032728 | 18 | 56 | 1.6 | 1.6 | 0.00 | 0.00 | 0.00 | 87 | 1008.5 |
| 20260507032224 | 18 | 187 | 0.0 | 0.0 | 0.00 | 0.00 | 0.00 | 87 | 1008.1 |
| 20260507031721 | 18 | 181 | 0.0 | 0.0 | 0.00 | 0.00 | 0.00 | 87 | 1008.3 |
| 20260507031217 | 18 | 175 | 0.0 | 0.0 | 0.00 | 0.00 | 0.00 | 87 | 1008.1 |
| 20260507030714 | 18 | 171 | 0.0 | 0.0 | 0.00 | 0.00 | 0.00 | 87 | 1008.0 |
| 20260507030212 | 18 | 179 | 0.0 | 0.0 | 0.00 | 0.00 | 0.00 | 87 | 1008.6 |
| 20260507025709 | 18 | 191 | 1.6 | 1.6 | 0.00 | 0.00 | 0.00 | 87 | 1008.4 |
| 20260507025206 | 18 | 136 | 0.0 | 1.6 | 0.00 | 0.00 | 0.00 | 87 | 1008.4 |
| 20260507024704 | 18 | 199 | 0.0 | 0.0 | 0.00 | 0.00 | 0.00 | 87 | 1008.5 |
| 20260507024201 | 18 | 182 | 0.0 | 0.0 | 0.00 | 0.00 | 0.00 | 87 | 1008.2 |
| 20260507023656 | 18 | 174 | 1.6 | 1.6 | 0.00 | 0.00 | 0.00 | 87 | 1008.3 |
| 20260507023154 | 18 | 188 | 0.0 | 0.0 | 0.00 | 0.00 | 0.00 | 87 | 1008.3 |
| 20260507022651 | 18 | 181 | 0.0 | 0.0 | 0.00 | 0.00 | 0.00 | 87 | 1008.6 |
| 20260507022146 | 18 | 202 | 0.0 | 1.6 | 0.00 | 0.00 | 0.00 | 87 | 1008.7 |
| 20260507021643 | 18 | 189 | 0.0 | 0.0 | 0.00 | 0.00 | 0.00 | 87 | 1008.6 |
| 20260507021138 | 18 | 209 | 1.6 | 1.6 | 0.00 | 0.00 | 0.00 | 87 | 1008.3 |
| 20260507020637 | 18 | 196 | 1.6 | 1.6 | 0.00 | 0.00 | 0.00 | 86 | 1008.4 |
| 20260507020132 | 18 | 161 | 0.0 | 0.0 | 0.00 | 0.00 | 0.00 | 86 | 1008.7 |
| 20260507015631 | 18 | 190 | 0.0 | 0.0 | 0.00 | 0.00 | 0.00 | 86 | 1008.6 |
| 20260507015128 | 18 | 179 | 0.0 | 0.0 | 0.00 | 0.00 | 0.00 | 85 | 1008.4 |
| 20260507014625 | 18 | 188 | 0.0 | 1.6 | 0.00 | 0.00 | 0.00 | 85 | 1008.8 |
| 20260507014120 | 18 | 190 | 0.0 | 0.0 | 0.00 | 0.00 | 0.00 | 85 | 1008.8 |
| 20260507013618 | 18 | 221 | 1.6 | 3.2 | 0.00 | 0.00 | 0.00 | 84 | 1008.6 |
| 20260507013114 | 18 | 193 | 0.0 | 1.6 | 0.00 | 0.00 | 0.00 | 84 | 1008.5 |
| 20260507012612 | 18 | 174 | 1.6 | 1.6 | 0.00 | 0.00 | 0.00 | 84 | 1008.8 |
| 20260507012107 | 18 | 194 | 1.6 | 1.6 | 0.00 | 0.00 | 0.00 | 84 | 1008.6 |
| 20260507011606 | 18 | 216 | 0.0 | 1.6 | 0.00 | 0.00 | 0.00 | 84 | 1008.6 |
| 20260507011102 | 18 | 198 | 1.6 | 1.6 | 0.00 | 0.00 | 0.00 | 83 | 1008.7 |
| 20260507010556 | 18 | 187 | 0.0 | 0.0 | 0.00 | 0.00 | 0.00 | 84 | 1008.8 |
| 20260507010052 | 18 | 202 | 0.0 | 1.6 | 0.00 | 0.00 | 0.00 | 84 | 1008.6 |
| 20260507005550 | 18 | 192 | 0.0 | 0.0 | 0.00 | 0.00 | 0.00 | 83 | 1008.8 |
| 20260507005046 | 18 | 190 | 1.6 | 1.6 | 0.00 | 0.00 | 0.00 | 83 | 1008.3 |
| 20260507004543 | 18 | 191 | 1.6 | 1.6 | 0.00 | 0.00 | 0.00 | 84 | 1008.4 |
| 20260507004041 | 18 | 188 | 0.0 | 0.0 | 0.00 | 0.00 | 0.00 | 83 | 1008.1 |
| 20260507003536 | 18 | 190 | 0.0 | 0.0 | 0.00 | 0.00 | 0.00 | 83 | 1008.0 |
| 20260507003032 | 18 | 181 | 0.0 | 0.0 | 0.00 | 0.00 | 0.00 | 83 | 1008.0 |
| 20260507002528 | 19 | 189 | 0.0 | 1.6 | 0.00 | 0.00 | 0.00 | 82 | 1008.0 |
| 20260507002019 | 19 | 187 | 3.2 | 3.2 | 0.00 | 0.00 | 0.00 | 81 | 1008.0 |
| 20260507001515 | 20 | 207 | 1.6 | 3.2 | 0.00 | 0.00 | 0.00 | 81 | 1007.7 |
| 20260507001013 | 20 | 36 | 3.2 | 3.2 | 0.00 | 0.00 | 0.00 | 81 | 1008.1 |
| 20260507000509 | 20 | 177 | 1.6 | 1.6 | 0.00 | 0.00 | 0.00 | 80 | 1008.0 |
| 20260507000005 | 20 | 226 | 1.6 | 3.2 | 0.00 | 0.00 | 0.00 | 80 | 1008.0 |
| 20260506235502 | 20 | 213 | 1.6 | 1.6 | 0.00 | 0.00 | 0.00 | 80 | 1007.8 |
| 20260506234958 | 20 | 199 | 1.6 | 1.6 | 0.00 | 0.00 | 0.00 | 79 | 1007.6 |
| 20260506234455 | 20 | 191 | 1.6 | 3.2 | 0.00 | 0.00 | 0.00 | 79 | 1007.6 |
| 20260506233952 | 20 | 123 | 3.2 | 4.8 | 0.00 | 0.00 | 0.00 | 79 | 1007.7 |
| 20260506233449 | 20 | 210 | 1.6 | 1.6 | 0.00 | 0.00 | 0.00 | 78 | 1007.7 |
| 20260506232945 | 20 | 246 | 1.6 | 1.6 | 0.00 | 0.00 | 0.00 | 78 | 1007.8 |
| 20260506232442 | 20 | 236 | 3.2 | 3.2 | 0.00 | 0.00 | 0.00 | 78 | 1007.8 |
| 20260506231938 | 20 | 197 | 1.6 | 1.6 | 0.00 | 0.00 | 0.00 | 78 | 1007.8 |
| 20260506231436 | 20 | 200 | 1.6 | 3.2 | 0.00 | 0.00 | 0.00 | 78 | 1007.7 |
| 20260506230932 | 20 | 198 | 1.6 | 1.6 | 0.00 | 0.00 | 0.00 | 77 | 1007.7 |
| 20260506230428 | 20 | 253 | 1.6 | 1.6 | 0.00 | 0.00 | 0.00 | 77 | 1007.8 |
| 20260506225925 | 20 | 240 | 1.6 | 3.2 | 0.00 | 0.00 | 0.00 | 77 | 1007.7 |
| 20260506225423 | 20 | 175 | 0.0 | 1.6 | 0.00 | 0.00 | 0.00 | 77 | 1007.7 |
| 20260506224920 | 20 | 184 | 0.0 | 0.0 | 0.00 | 0.00 | 0.00 | 77 | 1007.6 |
| 20260506224417 | 20 | 185 | 1.6 | 1.6 | 0.00 | 0.00 | 0.00 | 77 | 1007.6 |
| 20260506223913 | 20 | 205 | 1.6 | 3.2 | 0.00 | 0.00 | 0.00 | 77 | 1007.6 |
| 20260506223409 | 20 | 189 | 1.6 | 1.6 | 0.00 | 0.00 | 0.00 | 77 | 1007.7 |
| 20260506222906 | 20 | 184 | 0.0 | 0.0 | 0.00 | 0.00 | 0.00 | 77 | 1007.7 |
| 20260506222402 | 20 | 217 | 3.2 | 4.8 | 0.00 | 0.00 | 0.00 | 77 | 1007.8 |
| 20260506221859 | 20 | 214 | 3.2 | 6.4 | 0.00 | 0.00 | 0.00 | 76 | 1007.8 |
| 20260506221356 | 20 | 209 | 1.6 | 3.2 | 0.00 | 0.00 | 0.00 | 76 | 1007.7 |
| 20260506220854 | 20 | 278 | 1.6 | 3.2 | 0.00 | 0.00 | 0.00 | 76 | 1007.5 |
| 20260506220349 | 20 | 203 | 1.6 | 1.6 | 0.00 | 0.00 | 0.00 | 76 | 1007.6 |
| 20260506215846 | 20 | 185 | 1.6 | 3.2 | 0.00 | 0.00 | 0.00 | 76 | 1007.7 |
| 20260506215342 | 21 | 191 | 3.2 | 6.4 | 0.00 | 0.00 | 0.00 | 76 | 1007.6 |
| 20260506214838 | 21 | 224 | 1.6 | 1.6 | 0.00 | 0.00 | 0.00 | 74 | 1007.6 |
| 20260506214335 | 20 | 215 | 3.2 | 4.8 | 0.00 | 0.00 | 0.00 | 76 | 1007.6 |
| 20260506213833 | 20 | 237 | 4.8 | 4.8 | 0.00 | 0.00 | 0.00 | 77 | 1007.6 |
| 20260506213330 | 20 | 203 | 1.6 | 1.6 | 0.00 | 0.00 | 0.00 | 77 | 1007.4 |
| 20260506212827 | 20 | 218 | 3.2 | 9.7 | 0.00 | 0.00 | 0.00 | 77 | 1007.6 |
| 20260506212323 | 20 | 194 | 0.0 | 1.6 | 0.00 | 0.00 | 0.00 | 76 | 1007.4 |
| 20260506211819 | 20 | 248 | 3.2 | 3.2 | 0.00 | 0.00 | 0.00 | 77 | 1007.6 |
| 20260506211315 | 20 | 234 | 6.4 | 9.7 | 0.00 | 0.00 | 0.00 | 76 | 1007.3 |
| 20260506210813 | 20 | 194 | 1.6 | 1.6 | 0.00 | 0.00 | 0.00 | 76 | 1007.5 |
| 20260506210309 | 20 | 248 | 6.4 | 11.3 | 0.00 | 0.00 | 0.00 | 75 | 1007.1 |
| 20260506205806 | 20 | 194 | 3.2 | 3.2 | 0.00 | 0.00 | 0.00 | 76 | 1007.3 |
| 20260506205305 | 20 | 238 | 1.6 | 1.6 | 0.00 | 0.00 | 0.00 | 76 | 1007.2 |
| 20260506204758 | 20 | 238 | 4.8 | 6.4 | 0.00 | 0.00 | 0.00 | 76 | 1007.3 |
| 20260506204257 | 20 | 215 | 3.2 | 4.8 | 0.00 | 0.00 | 0.00 | 77 | 1006.9 |
| 20260506203754 | 20 | 295 | 4.8 | 6.4 | 0.00 | 0.00 | 0.00 | 77 | 1007.1 |
| 20260506203251 | 20 | 301 | 4.8 | 4.8 | 0.00 | 0.00 | 0.00 | 78 | 1007.2 |
| 20260506202748 | 20 | 228 | 3.2 | 4.8 | 0.00 | 0.00 | 0.00 | 78 | 1007.1 |
| 20260506202245 | 20 | 247 | 1.6 | 3.2 | 0.00 | 0.00 | 0.00 | 78 | 1007.0 |
| 20260506201741 | 20 | 208 | 1.6 | 3.2 | 0.00 | 0.00 | 0.00 | 77 | 1007.2 |
| 20260506201238 | 20 | 167 | 1.6 | 1.6 | 0.00 | 0.00 | 0.00 | 77 | 1007.1 |